sensor_id;sensor_type;location;lat;lon;timestamp;temperature;humidity
18047;DHT22;9148;51.454;13.862;2023-02-21T00:02:30;10.10;99.90
18047;DHT22;9148;51.454;13.862;2023-02-21T00:05:14;10.20;99.90
18047;DHT22;9148;51.454;13.862;2023-02-21T00:07:58;10.00;99.90
18047;DHT22;9148;51.454;13.862;2023-02-21T00:10:43;9.80;99.90
18047;DHT22;9148;51.454;13.862;2023-02-21T00:13:27;9.60;99.90
18047;DHT22;9148;51.454;13.862;2023-02-21T00:16:16;9.70;99.90
18047;DHT22;9148;51.454;13.862;2023-02-21T00:19:01;9.30;99.90
18047;DHT22;9148;51.454;13.862;2023-02-21T00:21:46;9.10;99.90
18047;DHT22;9148;51.454;13.862;2023-02-21T00:24:30;9.10;99.90
18047;DHT22;9148;51.454;13.862;2023-02-21T00:27:14;9.00;99.90
18047;DHT22;9148;51.454;13.862;2023-02-21T00:29:58;8.90;99.90
18047;DHT22;9148;51.454;13.862;2023-02-21T00:32:42;8.90;99.90
18047;DHT22;9148;51.454;13.862;2023-02-21T00:35:27;8.90;99.90
18047;DHT22;9148;51.454;13.862;2023-02-21T00:38:11;8.80;99.90
18047;DHT22;9148;51.454;13.862;2023-02-21T00:40:56;8.80;99.90
18047;DHT22;9148;51.454;13.862;2023-02-21T00:43:40;8.80;99.90
18047;DHT22;9148;51.454;13.862;2023-02-21T00:46:24;8.80;99.90
18047;DHT22;9148;51.454;13.862;2023-02-21T00:49:09;8.70;99.90
18047;DHT22;9148;51.454;13.862;2023-02-21T00:51:53;9.20;99.90
18047;DHT22;9148;51.454;13.862;2023-02-21T00:54:38;8.60;99.90
18047;DHT22;9148;51.454;13.862;2023-02-21T00:57:22;8.60;99.90
18047;DHT22;9148;51.454;13.862;2023-02-21T01:00:12;8.70;99.90
18047;DHT22;9148;51.454;13.862;2023-02-21T01:02:58;8.60;99.90
18047;DHT22;9148;51.454;13.862;2023-02-21T01:05:42;8.60;99.90
18047;DHT22;9148;51.454;13.862;2023-02-21T01:08:27;8.50;99.90
18047;DHT22;9148;51.454;13.862;2023-02-21T01:11:19;8.50;99.90
18047;DHT22;9148;51.454;13.862;2023-02-21T01:14:04;8.60;99.90
18047;DHT22;9148;51.454;13.862;2023-02-21T01:16:49;8.50;99.90
18047;DHT22;9148;51.454;13.862;2023-02-21T01:19:33;8.60;99.90
18047;DHT22;9148;51.454;13.862;2023-02-21T01:22:18;8.50;99.90
18047;DHT22;9148;51.454;13.862;2023-02-21T01:25:03;8.50;99.90
18047;DHT22;9148;51.454;13.862;2023-02-21T01:27:48;8.50;99.90
18047;DHT22;9148;51.454;13.862;2023-02-21T01:30:32;8.50;99.90
18047;DHT22;9148;51.454;13.862;2023-02-21T01:33:16;8.50;99.90
18047;DHT22;9148;51.454;13.862;2023-02-21T01:36:04;8.50;99.90
18047;DHT22;9148;51.454;13.862;2023-02-21T01:38:49;8.60;99.90
18047;DHT22;9148;51.454;13.862;2023-02-21T01:41:33;8.60;99.90
18047;DHT22;9148;51.454;13.862;2023-02-21T01:44:34;8.60;99.90
18047;DHT22;9148;51.454;13.862;2023-02-21T01:47:20;8.60;99.90
18047;DHT22;9148;51.454;13.862;2023-02-21T01:53:02;8.70;99.90
18047;DHT22;9148;51.454;13.862;2023-02-21T01:55:47;8.80;99.90
18047;DHT22;9148;51.454;13.862;2023-02-21T01:58:32;8.80;99.90
18047;DHT22;9148;51.454;13.862;2023-02-21T02:01:28;8.80;99.90
18047;DHT22;9148;51.454;13.862;2023-02-21T02:04:18;8.90;99.90
18047;DHT22;9148;51.454;13.862;2023-02-21T02:07:03;8.80;99.90
18047;DHT22;9148;51.454;13.862;2023-02-21T02:09:47;8.90;99.90
18047;DHT22;9148;51.454;13.862;2023-02-21T02:13:02;8.90;99.90
18047;DHT22;9148;51.454;13.862;2023-02-21T02:21:49;8.90;99.90
18047;DHT22;9148;51.454;13.862;2023-02-21T02:24:57;8.90;99.90
18047;DHT22;9148;51.454;13.862;2023-02-21T02:27:50;8.90;99.90
18047;DHT22;9148;51.454;13.862;2023-02-21T02:30:34;9.00;99.90
18047;DHT22;9148;51.454;13.862;2023-02-21T02:33:33;8.90;99.90
18047;DHT22;9148;51.454;13.862;2023-02-21T02:36:04;9.00;99.90
18047;DHT22;9148;51.454;13.862;2023-02-21T02:38:36;9.10;99.90
18047;DHT22;9148;51.454;13.862;2023-02-21T02:42:16;9.10;99.90
18047;DHT22;9148;51.454;13.862;2023-02-21T02:44:59;9.10;99.90
18047;DHT22;9148;51.454;13.862;2023-02-21T02:47:33;9.20;99.90
18047;DHT22;9148;51.454;13.862;2023-02-21T02:50:02;9.20;99.90
18047;DHT22;9148;51.454;13.862;2023-02-21T02:52:30;9.20;99.90
18047;DHT22;9148;51.454;13.862;2023-02-21T02:55:00;9.30;99.90
18047;DHT22;9148;51.454;13.862;2023-02-21T02:57:30;9.30;99.90
18047;DHT22;9148;51.454;13.862;2023-02-21T03:00:06;9.30;99.90
18047;DHT22;9148;51.454;13.862;2023-02-21T03:05:59;9.30;99.90
18047;DHT22;9148;51.454;13.862;2023-02-21T03:08:49;9.40;99.90
18047;DHT22;9148;51.454;13.862;2023-02-21T03:11:36;9.40;99.90
18047;DHT22;9148;51.454;13.862;2023-02-21T03:14:13;9.50;99.90
18047;DHT22;9148;51.454;13.862;2023-02-21T03:16:45;9.50;99.90
18047;DHT22;9148;51.454;13.862;2023-02-21T03:19:27;9.50;99.90
18047;DHT22;9148;51.454;13.862;2023-02-21T03:21:59;9.50;99.90
18047;DHT22;9148;51.454;13.862;2023-02-21T03:24:27;9.60;99.90
18047;DHT22;9148;51.454;13.862;2023-02-21T03:26:59;9.70;99.90
18047;DHT22;9148;51.454;13.862;2023-02-21T03:29:28;9.70;99.90
18047;DHT22;9148;51.454;13.862;2023-02-21T03:31:57;9.70;99.90
18047;DHT22;9148;51.454;13.862;2023-02-21T03:34:36;9.70;99.90
18047;DHT22;9148;51.454;13.862;2023-02-21T03:37:07;9.80;99.90
18047;DHT22;9148;51.454;13.862;2023-02-21T03:39:34;9.80;99.90
18047;DHT22;9148;51.454;13.862;2023-02-21T03:42:00;9.80;99.90
18047;DHT22;9148;51.454;13.862;2023-02-21T03:44:26;9.80;99.90
18047;DHT22;9148;51.454;13.862;2023-02-21T03:46:51;9.80;99.90
18047;DHT22;9148;51.454;13.862;2023-02-21T03:49:17;9.90;99.90
18047;DHT22;9148;51.454;13.862;2023-02-21T03:51:43;9.90;99.90
18047;DHT22;9148;51.454;13.862;2023-02-21T03:54:08;9.90;99.90
18047;DHT22;9148;51.454;13.862;2023-02-21T03:56:34;9.90;99.90
18047;DHT22;9148;51.454;13.862;2023-02-21T03:59:00;9.90;99.90
18047;DHT22;9148;51.454;13.862;2023-02-21T04:01:25;10.00;99.90
18047;DHT22;9148;51.454;13.862;2023-02-21T04:03:51;10.00;99.90
18047;DHT22;9148;51.454;13.862;2023-02-21T04:06:17;10.00;99.90
18047;DHT22;9148;51.454;13.862;2023-02-21T04:08:43;10.00;99.90
18047;DHT22;9148;51.454;13.862;2023-02-21T04:11:08;10.10;99.90
18047;DHT22;9148;51.454;13.862;2023-02-21T04:13:34;10.10;99.90
18047;DHT22;9148;51.454;13.862;2023-02-21T04:16:00;10.10;99.90
18047;DHT22;9148;51.454;13.862;2023-02-21T04:18:25;10.10;99.90
18047;DHT22;9148;51.454;13.862;2023-02-21T04:20:51;10.20;99.90
18047;DHT22;9148;51.454;13.862;2023-02-21T04:23:18;10.20;99.90
18047;DHT22;9148;51.454;13.862;2023-02-21T04:25:44;10.20;99.90
18047;DHT22;9148;51.454;13.862;2023-02-21T04:28:10;10.20;99.90
18047;DHT22;9148;51.454;13.862;2023-02-21T04:30:36;10.10;99.90
18047;DHT22;9148;51.454;13.862;2023-02-21T04:33:02;10.20;99.90
18047;DHT22;9148;51.454;13.862;2023-02-21T04:35:28;10.20;99.90
18047;DHT22;9148;51.454;13.862;2023-02-21T04:37:54;10.20;99.90
18047;DHT22;9148;51.454;13.862;2023-02-21T04:40:19;10.20;99.90
18047;DHT22;9148;51.454;13.862;2023-02-21T04:42:45;10.20;99.90
18047;DHT22;9148;51.454;13.862;2023-02-21T04:45:11;10.20;99.90
18047;DHT22;9148;51.454;13.862;2023-02-21T04:47:37;10.20;99.90
18047;DHT22;9148;51.454;13.862;2023-02-21T04:50:03;10.10;99.90
18047;DHT22;9148;51.454;13.862;2023-02-21T04:52:30;10.10;99.90
18047;DHT22;9148;51.454;13.862;2023-02-21T04:54:55;10.10;99.90
18047;DHT22;9148;51.454;13.862;2023-02-21T04:57:21;10.10;99.90
18047;DHT22;9148;51.454;13.862;2023-02-21T04:59:47;10.10;99.90
18047;DHT22;9148;51.454;13.862;2023-02-21T05:02:13;10.00;99.90
18047;DHT22;9148;51.454;13.862;2023-02-21T05:04:39;10.10;99.90
18047;DHT22;9148;51.454;13.862;2023-02-21T05:07:06;10.10;99.90
18047;DHT22;9148;51.454;13.862;2023-02-21T05:09:32;10.10;99.90
18047;DHT22;9148;51.454;13.862;2023-02-21T05:11:58;10.10;99.90
18047;DHT22;9148;51.454;13.862;2023-02-21T05:14:23;10.10;99.90
18047;DHT22;9148;51.454;13.862;2023-02-21T05:16:49;10.10;99.90
18047;DHT22;9148;51.454;13.862;2023-02-21T05:19:21;10.20;99.90
18047;DHT22;9148;51.454;13.862;2023-02-21T05:21:55;10.10;99.90
18047;DHT22;9148;51.454;13.862;2023-02-21T05:24:23;10.10;99.90
18047;DHT22;9148;51.454;13.862;2023-02-21T05:26:49;10.10;99.90
18047;DHT22;9148;51.454;13.862;2023-02-21T05:29:15;10.10;99.90
18047;DHT22;9148;51.454;13.862;2023-02-21T05:31:41;10.10;99.90
18047;DHT22;9148;51.454;13.862;2023-02-21T05:34:06;10.10;99.90
18047;DHT22;9148;51.454;13.862;2023-02-21T05:36:32;10.10;99.90
18047;DHT22;9148;51.454;13.862;2023-02-21T05:38:58;10.10;99.90
18047;DHT22;9148;51.454;13.862;2023-02-21T05:41:23;10.10;99.90
18047;DHT22;9148;51.454;13.862;2023-02-21T05:43:49;10.10;99.90
18047;DHT22;9148;51.454;13.862;2023-02-21T05:46:30;10.10;99.90
18047;DHT22;9148;51.454;13.862;2023-02-21T05:48:59;10.10;99.90
18047;DHT22;9148;51.454;13.862;2023-02-21T05:51:27;10.00;99.90
18047;DHT22;9148;51.454;13.862;2023-02-21T05:53:55;10.00;99.90
18047;DHT22;9148;51.454;13.862;2023-02-21T05:56:21;10.00;99.90
18047;DHT22;9148;51.454;13.862;2023-02-21T05:58:47;10.00;99.90
18047;DHT22;9148;51.454;13.862;2023-02-21T06:01:13;10.00;99.90
18047;DHT22;9148;51.454;13.862;2023-02-21T06:03:39;10.00;99.90
18047;DHT22;9148;51.454;13.862;2023-02-21T06:06:04;10.00;99.90
18047;DHT22;9148;51.454;13.862;2023-02-21T06:08:30;10.00;99.90
18047;DHT22;9148;51.454;13.862;2023-02-21T06:10:56;10.00;99.90
18047;DHT22;9148;51.454;13.862;2023-02-21T06:13:22;10.00;99.90
18047;DHT22;9148;51.454;13.862;2023-02-21T06:15:48;10.00;99.90
18047;DHT22;9148;51.454;13.862;2023-02-21T06:18:14;10.00;99.90
18047;DHT22;9148;51.454;13.862;2023-02-21T06:20:41;10.00;99.90
18047;DHT22;9148;51.454;13.862;2023-02-21T06:23:06;9.90;99.90
18047;DHT22;9148;51.454;13.862;2023-02-21T06:25:32;9.90;99.90
18047;DHT22;9148;51.454;13.862;2023-02-21T06:27:58;9.90;99.90
18047;DHT22;9148;51.454;13.862;2023-02-21T06:30:24;9.90;99.90
18047;DHT22;9148;51.454;13.862;2023-02-21T06:32:50;9.90;99.90
18047;DHT22;9148;51.454;13.862;2023-02-21T06:35:15;9.80;99.90
18047;DHT22;9148;51.454;13.862;2023-02-21T06:37:41;9.80;99.90
18047;DHT22;9148;51.454;13.862;2023-02-21T06:40:07;9.70;99.90
18047;DHT22;9148;51.454;13.862;2023-02-21T06:42:33;9.70;99.90
18047;DHT22;9148;51.454;13.862;2023-02-21T06:44:58;9.70;99.90
18047;DHT22;9148;51.454;13.862;2023-02-21T06:47:24;9.60;99.90
18047;DHT22;9148;51.454;13.862;2023-02-21T06:49:50;9.40;99.90
18047;DHT22;9148;51.454;13.862;2023-02-21T06:52:16;9.30;99.90
18047;DHT22;9148;51.454;13.862;2023-02-21T06:54:41;9.30;99.90
18047;DHT22;9148;51.454;13.862;2023-02-21T06:57:07;9.20;99.90
18047;DHT22;9148;51.454;13.862;2023-02-21T06:59:32;9.20;99.90
18047;DHT22;9148;51.454;13.862;2023-02-21T07:01:58;9.10;99.90
18047;DHT22;9148;51.454;13.862;2023-02-21T07:04:24;9.10;99.90
18047;DHT22;9148;51.454;13.862;2023-02-21T07:06:51;9.10;99.90
18047;DHT22;9148;51.454;13.862;2023-02-21T07:09:17;9.10;99.90
18047;DHT22;9148;51.454;13.862;2023-02-21T07:11:42;9.00;99.90
18047;DHT22;9148;51.454;13.862;2023-02-21T07:14:09;9.00;99.90
18047;DHT22;9148;51.454;13.862;2023-02-21T07:16:35;9.00;99.90
18047;DHT22;9148;51.454;13.862;2023-02-21T07:19:01;9.00;99.90
18047;DHT22;9148;51.454;13.862;2023-02-21T07:21:27;9.00;99.90
18047;DHT22;9148;51.454;13.862;2023-02-21T07:23:52;9.00;99.90
18047;DHT22;9148;51.454;13.862;2023-02-21T07:26:18;8.90;99.90
18047;DHT22;9148;51.454;13.862;2023-02-21T07:28:47;8.90;99.90
18047;DHT22;9148;51.454;13.862;2023-02-21T07:31:13;9.00;99.90
18047;DHT22;9148;51.454;13.862;2023-02-21T07:33:38;8.90;99.90
18047;DHT22;9148;51.454;13.862;2023-02-21T07:36:05;8.90;99.90
18047;DHT22;9148;51.454;13.862;2023-02-21T07:38:31;8.90;99.90
18047;DHT22;9148;51.454;13.862;2023-02-21T07:40:59;8.80;99.90
18047;DHT22;9148;51.454;13.862;2023-02-21T07:43:27;8.90;99.90
18047;DHT22;9148;51.454;13.862;2023-02-21T07:45:54;8.80;99.90
18047;DHT22;9148;51.454;13.862;2023-02-21T07:48:20;8.80;99.90
18047;DHT22;9148;51.454;13.862;2023-02-21T07:50:46;8.80;99.90
18047;DHT22;9148;51.454;13.862;2023-02-21T07:53:13;8.90;99.90
18047;DHT22;9148;51.454;13.862;2023-02-21T07:55:40;8.90;99.90
18047;DHT22;9148;51.454;13.862;2023-02-21T07:58:06;8.90;99.90
18047;DHT22;9148;51.454;13.862;2023-02-21T08:00:32;8.90;99.90
18047;DHT22;9148;51.454;13.862;2023-02-21T08:02:58;8.90;99.90
18047;DHT22;9148;51.454;13.862;2023-02-21T08:05:24;8.90;99.90
18047;DHT22;9148;51.454;13.862;2023-02-21T08:07:50;8.90;99.90
18047;DHT22;9148;51.454;13.862;2023-02-21T08:10:23;8.90;99.90
18047;DHT22;9148;51.454;13.862;2023-02-21T08:12:50;9.00;99.90
18047;DHT22;9148;51.454;13.862;2023-02-21T08:23:02;9.10;99.90
18047;DHT22;9148;51.454;13.862;2023-02-21T08:25:28;9.20;99.90
18047;DHT22;9148;51.454;13.862;2023-02-21T08:27:54;9.10;99.90
18047;DHT22;9148;51.454;13.862;2023-02-21T08:30:19;9.20;99.90
18047;DHT22;9148;51.454;13.862;2023-02-21T08:32:45;9.30;99.90
18047;DHT22;9148;51.454;13.862;2023-02-21T08:35:17;9.30;99.90
18047;DHT22;9148;51.454;13.862;2023-02-21T08:37:45;9.30;99.90
18047;DHT22;9148;51.454;13.862;2023-02-21T08:40:12;9.40;99.90
18047;DHT22;9148;51.454;13.862;2023-02-21T08:42:39;9.40;99.90
18047;DHT22;9148;51.454;13.862;2023-02-21T08:45:05;9.40;99.90
18047;DHT22;9148;51.454;13.862;2023-02-21T08:47:33;9.50;99.90
18047;DHT22;9148;51.454;13.862;2023-02-21T08:50:00;9.50;99.90
18047;DHT22;9148;51.454;13.862;2023-02-21T08:52:26;9.40;99.90
18047;DHT22;9148;51.454;13.862;2023-02-21T08:54:52;9.40;99.90
18047;DHT22;9148;51.454;13.862;2023-02-21T08:57:17;9.40;99.90
18047;DHT22;9148;51.454;13.862;2023-02-21T08:59:43;9.40;99.90
18047;DHT22;9148;51.454;13.862;2023-02-21T09:02:18;9.30;99.90
18047;DHT22;9148;51.454;13.862;2023-02-21T09:04:50;9.30;99.90
18047;DHT22;9148;51.454;13.862;2023-02-21T09:07:17;9.30;99.90
18047;DHT22;9148;51.454;13.862;2023-02-21T09:09:44;9.30;99.90
18047;DHT22;9148;51.454;13.862;2023-02-21T09:12:10;9.30;99.90
18047;DHT22;9148;51.454;13.862;2023-02-21T09:14:37;9.30;99.90
18047;DHT22;9148;51.454;13.862;2023-02-21T09:17:06;9.30;99.90
18047;DHT22;9148;51.454;13.862;2023-02-21T09:19:33;9.30;99.90
18047;DHT22;9148;51.454;13.862;2023-02-21T09:21:59;9.30;99.90
18047;DHT22;9148;51.454;13.862;2023-02-21T09:24:27;9.40;99.90
18047;DHT22;9148;51.454;13.862;2023-02-21T09:26:57;9.30;99.90
18047;DHT22;9148;51.454;13.862;2023-02-21T09:29:31;9.30;99.90
18047;DHT22;9148;51.454;13.862;2023-02-21T09:31:58;9.40;99.90
18047;DHT22;9148;51.454;13.862;2023-02-21T09:34:24;9.40;99.90
18047;DHT22;9148;51.454;13.862;2023-02-21T09:36:50;9.40;99.90
18047;DHT22;9148;51.454;13.862;2023-02-21T09:39:19;9.40;99.90
18047;DHT22;9148;51.454;13.862;2023-02-21T09:41:45;9.50;99.90
18047;DHT22;9148;51.454;13.862;2023-02-21T09:44:14;9.50;99.90
18047;DHT22;9148;51.454;13.862;2023-02-21T09:46:45;9.50;99.90
18047;DHT22;9148;51.454;13.862;2023-02-21T09:49:29;9.60;99.90
18047;DHT22;9148;51.454;13.862;2023-02-21T09:51:58;9.50;99.90
18047;DHT22;9148;51.454;13.862;2023-02-21T09:54:35;9.60;99.90
18047;DHT22;9148;51.454;13.862;2023-02-21T09:57:08;9.60;99.90
18047;DHT22;9148;51.454;13.862;2023-02-21T09:59:36;9.60;99.90
18047;DHT22;9148;51.454;13.862;2023-02-21T10:08:11;9.50;99.90
18047;DHT22;9148;51.454;13.862;2023-02-21T10:11:02;9.60;99.90
18047;DHT22;9148;51.454;13.862;2023-02-21T10:14:01;9.50;99.90
18047;DHT22;9148;51.454;13.862;2023-02-21T10:16:56;9.50;99.90
18047;DHT22;9148;51.454;13.862;2023-02-21T10:19:30;9.60;99.90
18047;DHT22;9148;51.454;13.862;2023-02-21T10:22:02;9.50;99.90
18047;DHT22;9148;51.454;13.862;2023-02-21T10:24:43;9.50;99.90
18047;DHT22;9148;51.454;13.862;2023-02-21T10:27:17;9.60;99.90
18047;DHT22;9148;51.454;13.862;2023-02-21T10:29:51;9.60;99.90
18047;DHT22;9148;51.454;13.862;2023-02-21T10:32:21;9.60;99.90
18047;DHT22;9148;51.454;13.862;2023-02-21T10:34:48;9.60;99.90
18047;DHT22;9148;51.454;13.862;2023-02-21T10:37:37;9.60;99.90
18047;DHT22;9148;51.454;13.862;2023-02-21T10:40:37;9.70;99.90
18047;DHT22;9148;51.454;13.862;2023-02-21T10:43:20;9.70;99.90
18047;DHT22;9148;51.454;13.862;2023-02-21T10:46:00;9.70;99.90
18047;DHT22;9148;51.454;13.862;2023-02-21T10:48:34;9.70;99.90
18047;DHT22;9148;51.454;13.862;2023-02-21T10:51:28;9.70;99.90
18047;DHT22;9148;51.454;13.862;2023-02-21T10:54:19;9.70;99.90
18047;DHT22;9148;51.454;13.862;2023-02-21T10:56:48;9.70;99.90
18047;DHT22;9148;51.454;13.862;2023-02-21T10:59:39;9.80;99.90
18047;DHT22;9148;51.454;13.862;2023-02-21T11:02:32;9.80;99.90
18047;DHT22;9148;51.454;13.862;2023-02-21T11:05:18;9.80;99.90
18047;DHT22;9148;51.454;13.862;2023-02-21T11:08:02;9.90;99.90
18047;DHT22;9148;51.454;13.862;2023-02-21T11:10:37;10.00;99.90
18047;DHT22;9148;51.454;13.862;2023-02-21T11:13:16;10.10;99.90
18047;DHT22;9148;51.454;13.862;2023-02-21T11:15:44;10.20;99.90
18047;DHT22;9148;51.454;13.862;2023-02-21T11:20:44;10.40;99.90
18047;DHT22;9148;51.454;13.862;2023-02-21T11:23:37;10.50;99.90
18047;DHT22;9148;51.454;13.862;2023-02-21T11:26:14;10.60;99.90
18047;DHT22;9148;51.454;13.862;2023-02-21T11:28:42;10.70;99.90
18047;DHT22;9148;51.454;13.862;2023-02-21T11:31:15;10.80;99.90
18047;DHT22;9148;51.454;13.862;2023-02-21T11:33:57;10.90;99.90
18047;DHT22;9148;51.454;13.862;2023-02-21T11:36:30;10.90;99.90
18047;DHT22;9148;51.454;13.862;2023-02-21T11:39:04;11.10;99.90
18047;DHT22;9148;51.454;13.862;2023-02-21T11:41:58;11.10;99.90
18047;DHT22;9148;51.454;13.862;2023-02-21T11:52:39;11.70;99.90
18047;DHT22;9148;51.454;13.862;2023-02-21T11:55:14;11.80;99.90
18047;DHT22;9148;51.454;13.862;2023-02-21T12:06:27;12.00;99.90
18047;DHT22;9148;51.454;13.862;2023-02-21T12:09:18;11.90;99.90
18047;DHT22;9148;51.454;13.862;2023-02-21T12:12:01;11.90;99.90
18047;DHT22;9148;51.454;13.862;2023-02-21T12:14:46;11.90;99.90
18047;DHT22;9148;51.454;13.862;2023-02-21T12:21:03;11.80;99.90
18047;DHT22;9148;51.454;13.862;2023-02-21T12:26:18;11.70;99.90
18047;DHT22;9148;51.454;13.862;2023-02-21T12:29:08;11.60;99.90
18047;DHT22;9148;51.454;13.862;2023-02-21T12:32:15;11.60;99.90
18047;DHT22;9148;51.454;13.862;2023-02-21T12:38:10;11.50;99.90
18047;DHT22;9148;51.454;13.862;2023-02-21T12:40:44;11.60;99.90
18047;DHT22;9148;51.454;13.862;2023-02-21T12:46:12;11.60;99.90
18047;DHT22;9148;51.454;13.862;2023-02-21T12:48:56;11.60;99.90
18047;DHT22;9148;51.454;13.862;2023-02-21T12:57:13;11.50;99.90
18047;DHT22;9148;51.454;13.862;2023-02-21T13:02:49;11.60;99.90
18047;DHT22;9148;51.454;13.862;2023-02-21T13:05:38;11.60;99.90
18047;DHT22;9148;51.454;13.862;2023-02-21T13:13:51;11.60;99.90
18047;DHT22;9148;51.454;13.862;2023-02-21T13:16:18;11.60;99.90
18047;DHT22;9148;51.454;13.862;2023-02-21T13:19:00;11.60;99.90
18047;DHT22;9148;51.454;13.862;2023-02-21T13:21:48;11.60;99.90
18047;DHT22;9148;51.454;13.862;2023-02-21T13:27:47;11.70;99.90
18047;DHT22;9148;51.454;13.862;2023-02-21T13:32:59;11.70;99.90
18047;DHT22;9148;51.454;13.862;2023-02-21T13:35:32;11.70;99.90
18047;DHT22;9148;51.454;13.862;2023-02-21T13:38:01;11.70;99.90
18047;DHT22;9148;51.454;13.862;2023-02-21T13:40:37;11.70;99.90
18047;DHT22;9148;51.454;13.862;2023-02-21T13:43:25;11.70;99.90
18047;DHT22;9148;51.454;13.862;2023-02-21T13:45:54;11.70;99.90
18047;DHT22;9148;51.454;13.862;2023-02-21T13:48:25;11.70;99.90
18047;DHT22;9148;51.454;13.862;2023-02-21T13:50:57;11.80;99.90
18047;DHT22;9148;51.454;13.862;2023-02-21T13:54:07;11.70;99.90
18047;DHT22;9148;51.454;13.862;2023-02-21T13:56:43;11.70;99.90
18047;DHT22;9148;51.454;13.862;2023-02-21T13:59:35;11.70;99.90
18047;DHT22;9148;51.454;13.862;2023-02-21T14:02:28;11.70;99.90
18047;DHT22;9148;51.454;13.862;2023-02-21T14:05:03;11.70;99.90
18047;DHT22;9148;51.454;13.862;2023-02-21T14:07:42;11.70;99.90
18047;DHT22;9148;51.454;13.862;2023-02-21T14:10:36;11.70;99.90
18047;DHT22;9148;51.454;13.862;2023-02-21T14:16:24;11.80;99.90
18047;DHT22;9148;51.454;13.862;2023-02-21T14:21:46;11.80;99.90
18047;DHT22;9148;51.454;13.862;2023-02-21T14:24:35;11.80;99.90
18047;DHT22;9148;51.454;13.862;2023-02-21T14:39:48;11.80;99.90
18047;DHT22;9148;51.454;13.862;2023-02-21T14:42:37;11.70;99.90
18047;DHT22;9148;51.454;13.862;2023-02-21T14:45:28;11.80;99.90
18047;DHT22;9148;51.454;13.862;2023-02-21T15:06:25;11.70;99.90
18047;DHT22;9148;51.454;13.862;2023-02-21T15:08:52;11.70;99.90
18047;DHT22;9148;51.454;13.862;2023-02-21T15:11:26;11.70;99.90
18047;DHT22;9148;51.454;13.862;2023-02-21T15:14:12;11.80;99.90
18047;DHT22;9148;51.454;13.862;2023-02-21T15:16:59;11.70;99.90
18047;DHT22;9148;51.454;13.862;2023-02-21T15:19:33;11.70;99.90
18047;DHT22;9148;51.454;13.862;2023-02-21T15:22:26;11.80;99.90
18047;DHT22;9148;51.454;13.862;2023-02-21T15:24:57;11.80;99.90
18047;DHT22;9148;51.454;13.862;2023-02-21T15:30:27;11.70;99.90
18047;DHT22;9148;51.454;13.862;2023-02-21T15:33:16;11.80;99.90
18047;DHT22;9148;51.454;13.862;2023-02-21T15:35:58;11.80;99.90
18047;DHT22;9148;51.454;13.862;2023-02-21T15:41:07;11.80;99.90
18047;DHT22;9148;51.454;13.862;2023-02-21T15:43:45;11.70;99.90
18047;DHT22;9148;51.454;13.862;2023-02-21T15:46:21;11.80;99.90
18047;DHT22;9148;51.454;13.862;2023-02-21T15:48:50;11.80;99.90
18047;DHT22;9148;51.454;13.862;2023-02-21T15:51:16;11.70;99.90
18047;DHT22;9148;51.454;13.862;2023-02-21T15:53:42;11.70;99.90
18047;DHT22;9148;51.454;13.862;2023-02-21T15:56:29;11.70;99.90
18047;DHT22;9148;51.454;13.862;2023-02-21T15:59:31;11.70;99.90
18047;DHT22;9148;51.454;13.862;2023-02-21T16:02:19;11.70;99.90
18047;DHT22;9148;51.454;13.862;2023-02-21T16:04:49;11.70;99.90
18047;DHT22;9148;51.454;13.862;2023-02-21T16:07:33;11.60;99.90
18047;DHT22;9148;51.454;13.862;2023-02-21T16:10:07;11.60;99.90
18047;DHT22;9148;51.454;13.862;2023-02-21T16:12:37;11.60;99.90
18047;DHT22;9148;51.454;13.862;2023-02-21T16:15:28;11.60;99.90
18047;DHT22;9148;51.454;13.862;2023-02-21T16:17:57;11.60;99.90
18047;DHT22;9148;51.454;13.862;2023-02-21T16:20:40;11.60;99.90
18047;DHT22;9148;51.454;13.862;2023-02-21T16:23:29;11.60;99.90
18047;DHT22;9148;51.454;13.862;2023-02-21T16:28:34;11.60;99.90
18047;DHT22;9148;51.454;13.862;2023-02-21T16:31:05;11.50;99.90
18047;DHT22;9148;51.454;13.862;2023-02-21T16:33:33;11.50;99.90
18047;DHT22;9148;51.454;13.862;2023-02-21T16:36:00;11.50;99.90
18047;DHT22;9148;51.454;13.862;2023-02-21T16:38:31;11.50;99.90
18047;DHT22;9148;51.454;13.862;2023-02-21T16:40:57;11.50;99.90
18047;DHT22;9148;51.454;13.862;2023-02-21T16:43:27;11.50;99.90
18047;DHT22;9148;51.454;13.862;2023-02-21T16:45:57;11.40;99.90
18047;DHT22;9148;51.454;13.862;2023-02-21T16:48:28;11.40;99.90
18047;DHT22;9148;51.454;13.862;2023-02-21T16:51:00;11.40;99.90
18047;DHT22;9148;51.454;13.862;2023-02-21T16:53:28;11.40;99.90
18047;DHT22;9148;51.454;13.862;2023-02-21T16:55:54;11.40;99.90
18047;DHT22;9148;51.454;13.862;2023-02-21T16:58:27;11.40;99.90
18047;DHT22;9148;51.454;13.862;2023-02-21T17:00:56;11.40;99.90
18047;DHT22;9148;51.454;13.862;2023-02-21T17:03:24;11.40;99.90
18047;DHT22;9148;51.454;13.862;2023-02-21T17:05:50;11.40;99.90
18047;DHT22;9148;51.454;13.862;2023-02-21T17:08:17;11.30;99.90
18047;DHT22;9148;51.454;13.862;2023-02-21T17:10:43;11.30;99.90
18047;DHT22;9148;51.454;13.862;2023-02-21T17:13:09;11.30;99.90
18047;DHT22;9148;51.454;13.862;2023-02-21T17:15:34;11.30;99.90
18047;DHT22;9148;51.454;13.862;2023-02-21T17:18:00;11.30;99.90
18047;DHT22;9148;51.454;13.862;2023-02-21T17:20:27;11.30;99.90
18047;DHT22;9148;51.454;13.862;2023-02-21T17:22:54;11.20;99.90
18047;DHT22;9148;51.454;13.862;2023-02-21T17:25:21;11.30;99.90
18047;DHT22;9148;51.454;13.862;2023-02-21T17:27:47;11.20;99.90
18047;DHT22;9148;51.454;13.862;2023-02-21T17:30:15;11.30;99.90
18047;DHT22;9148;51.454;13.862;2023-02-21T17:32:42;11.30;99.90
18047;DHT22;9148;51.454;13.862;2023-02-21T17:35:09;11.20;99.90
18047;DHT22;9148;51.454;13.862;2023-02-21T17:37:35;11.20;99.90
18047;DHT22;9148;51.454;13.862;2023-02-21T17:40:01;11.20;99.90
18047;DHT22;9148;51.454;13.862;2023-02-21T17:42:26;11.20;99.90
18047;DHT22;9148;51.454;13.862;2023-02-21T17:44:52;11.10;99.90
18047;DHT22;9148;51.454;13.862;2023-02-21T17:47:20;11.10;99.90
18047;DHT22;9148;51.454;13.862;2023-02-21T17:49:48;11.10;99.90
18047;DHT22;9148;51.454;13.862;2023-02-21T17:52:15;11.10;99.90
18047;DHT22;9148;51.454;13.862;2023-02-21T17:54:41;11.10;99.90
18047;DHT22;9148;51.454;13.862;2023-02-21T17:57:08;11.10;99.90
18047;DHT22;9148;51.454;13.862;2023-02-21T17:59:35;11.10;99.90
18047;DHT22;9148;51.454;13.862;2023-02-21T18:02:01;11.10;99.90
18047;DHT22;9148;51.454;13.862;2023-02-21T18:04:27;11.10;99.90
18047;DHT22;9148;51.454;13.862;2023-02-21T18:06:52;11.20;99.90
18047;DHT22;9148;51.454;13.862;2023-02-21T18:09:19;11.10;99.90
18047;DHT22;9148;51.454;13.862;2023-02-21T18:11:52;11.10;99.90
18047;DHT22;9148;51.454;13.862;2023-02-21T18:14:20;11.10;99.90
18047;DHT22;9148;51.454;13.862;2023-02-21T18:16:47;11.10;99.90
18047;DHT22;9148;51.454;13.862;2023-02-21T18:19:14;11.10;99.90
18047;DHT22;9148;51.454;13.862;2023-02-21T18:21:40;11.10;99.90
18047;DHT22;9148;51.454;13.862;2023-02-21T18:24:08;11.10;99.90